Time;durP1;ratioP1;P1;durP2;ratioP2;P2;SDS_P1;SDS_P2;PMS_P1;PMS_P2;Temp;Humidity;BMP_temperature;BMP_pressure;BME280_temperature;BME280_humidity;BME280_pressure;Samples;Min_cycle;Max_cycle;Signal;HPM_P1;HPM_P2
2021/06/18 00:00:28;;;;;;;8.07;4.90;;;;;;;13.74;62.98;100985.16;4859033;29;20050;-80
2021/06/18 00:02:54;;;;;;;8.20;5.15;;;;;;;13.50;63.05;100948.63;4827918;29;20041;-81
2021/06/18 00:05:20;;;;;;;11.77;5.45;;;;;;;13.71;63.04;100992.13;4843694;29;20136;-81
2021/06/18 00:07:47;;;;;;;9.38;4.72;;;;;;;13.71;63.29;100992.13;4843628;29;20041;-82
2021/06/18 00:10:17;;;;;;;8.55;5.07;;;;;;;13.55;63.14;100979.97;4859740;29;20053;-80
2021/06/18 00:12:43;;;;;;;11.07;5.22;;;;;;;13.62;63.39;100988.66;4829208;29;20054;-79
2021/06/18 00:15:10;;;;;;;8.38;4.95;;;;;;;13.64;63.30;100997.38;4844756;29;20574;-79
2021/06/18 00:17:37;;;;;;;15.18;5.32;;;;;;;13.54;63.78;100980.84;4819956;29;20048;-81
2021/06/18 00:20:05;;;;;;;7.60;5.05;;;;;;;13.64;63.72;100997.38;4841825;29;20088;-80
2021/06/18 00:22:31;;;;;;;10.68;5.00;;;;;;;13.55;63.78;100993.03;4859426;29;20576;-79
2021/06/18 00:24:57;;;;;;;10.57;5.05;;;;;;;13.52;63.80;100990.44;4859545;29;20045;-79
2021/06/18 00:27:24;;;;;;;11.13;5.20;;;;;;;13.59;63.45;101001.75;4861011;29;20045;-81
2021/06/18 00:29:51;;;;;;;12.13;5.32;;;;;;;13.55;63.21;101007.00;4844108;29;20053;-80
2021/06/18 00:32:17;;;;;;;16.25;5.40;;;;;;;13.51;63.45;100999.16;4859408;29;20052;-80
2021/06/18 00:34:43;;;;;;;7.88;4.78;;;;;;;13.54;63.14;101015.72;4859524;29;20044;-79
2021/06/18 00:37:09;;;;;;;9.98;5.00;;;;;;;13.56;63.33;101023.56;4843397;29;20126;-80
2021/06/18 00:39:37;;;;;;;14.50;5.15;;;;;;;13.54;63.48;101028.81;4859824;29;20045;-79
2021/06/18 00:42:03;;;;;;;9.35;5.35;;;;;;;13.50;63.35;101026.16;4843458;29;20057;-79
2021/06/18 00:44:29;;;;;;;18.20;5.50;;;;;;;13.51;63.45;101035.75;4844035;29;20406;-84
2021/06/18 00:46:55;;;;;;;13.68;5.45;;;;;;;13.51;63.43;101036.66;4859218;29;20037;-81
2021/06/18 00:49:24;;;;;;;15.27;5.55;;;;;;;13.52;63.58;101040.13;4845884;29;20060;-81
2021/06/18 00:51:51;;;;;;;16.73;6.50;;;;;;;13.52;63.51;101045.34;4864694;29;20467;-81
2021/06/18 00:54:39;;;;;;;18.40;5.93;;;;;;;13.50;63.45;101045.34;4833356;29;20045;-79
2021/06/18 00:57:03;;;;;;;14.52;5.38;;;;;;;13.36;63.67;101013.97;4846404;29;20061;-81
2021/06/18 00:59:29;;;;;;;19.38;6.55;;;;;;;13.32;63.37;101011.38;4861219;29;20049;-81
2021/06/18 01:01:55;;;;;;;14.35;5.63;;;;;;;13.40;63.47;101027.88;4845883;29;20101;-79
2021/06/18 01:04:24;;;;;;;12.85;5.88;;;;;;;13.47;63.63;101037.50;4845000;29;20087;-80
2021/06/18 01:07:05;;;;;;;11.40;5.28;;;;;;;13.49;63.56;101046.22;4859102;29;20132;-81
2021/06/18 01:09:40;;;;;;;9.13;6.15;;;;;;;13.43;63.82;101041.00;4859187;29;20078;-80
2021/06/18 01:12:15;;;;;;;9.88;5.90;;;;;;;13.41;64.06;101032.28;4859317;29;20091;-81
2021/06/18 01:14:52;;;;;;;12.13;5.82;;;;;;;13.43;63.81;101038.38;4845710;29;20053;-81
2021/06/18 01:17:24;;;;;;;11.73;5.43;;;;;;;13.51;64.19;101049.72;4863574;29;20045;-80
2021/06/18 01:19:53;;;;;;;9.73;5.90;;;;;;;13.54;64.21;101043.59;4863661;29;20486;-82
2021/06/18 01:22:23;;;;;;;7.95;5.35;;;;;;;13.55;63.71;101055.81;4846831;29;20044;-79
2021/06/18 01:25:15;;;;;;;10.98;5.20;;;;;;;13.54;64.25;101048.81;4847358;29;20081;-79
2021/06/18 01:27:57;;;;;;;8.52;5.80;;;;;;;13.60;64.06;101050.56;4859941;29;20136;-81
2021/06/18 01:30:27;;;;;;;6.68;4.97;;;;;;;13.57;64.33;101032.28;4858582;29;20145;-82
2021/06/18 01:33:11;;;;;;;11.32;5.25;;;;;;;13.62;64.11;101043.59;4862165;29;20045;-81
2021/06/18 01:35:40;;;;;;;10.20;5.85;;;;;;;13.65;64.37;101043.59;4846677;29;20056;-80
2021/06/18 01:38:11;;;;;;;14.85;6.18;;;;;;;13.70;64.41;101052.31;4862294;29;20136;-81
2021/06/18 01:40:39;;;;;;;14.23;6.18;;;;;;;13.74;64.06;101051.44;4862935;29;20042;-80
2021/06/18 01:43:08;;;;;;;18.45;6.53;;;;;;;13.67;64.16;101042.72;4847419;29;20571;-81
2021/06/18 01:45:36;;;;;;;9.75;5.82;;;;;;;13.83;64.25;101050.53;4831642;29;20056;-80
2021/06/18 01:48:05;;;;;;;13.68;6.00;;;;;;;13.89;64.43;101062.72;4849502;29;20037;-80
2021/06/18 01:50:32;;;;;;;12.02;6.47;;;;;;;13.89;64.24;101058.38;4872694;29;20539;-80
2021/06/18 01:53:08;;;;;;;12.73;5.68;;;;;;;13.92;64.30;101057.47;4867130;29;20052;-79
2021/06/18 01:55:36;;;;;;;8.93;5.22;;;;;;;14.04;64.43;101064.44;4850155;29;20070;-79
2021/06/18 01:58:05;;;;;;;11.18;5.70;;;;;;;14.11;64.43;101066.16;4865615;29;20113;-80
2021/06/18 02:00:34;;;;;;;14.45;6.00;;;;;;;14.17;64.49;101068.72;4864202;29;20093;-78
2021/06/18 02:03:07;;;;;;;10.18;6.03;;;;;;;14.22;64.23;101073.97;4866423;29;20073;-82
2021/06/18 02:05:35;;;;;;;10.05;5.75;;;;;;;14.16;64.42;101054.78;4844954;29;20049;-80
2021/06/18 02:08:02;;;;;;;7.72;5.85;;;;;;;14.35;64.39;101073.03;4873018;29;20061;-79
2021/06/18 02:10:39;;;;;;;6.60;4.90;;;;;;;14.36;64.45;101060.78;4873542;29;20069;-80
2021/06/18 02:13:07;;;;;;;11.40;5.88;;;;;;;14.47;64.34;101069.50;4837522;29;20107;-80
2021/06/18 02:15:37;;;;;;;14.70;7.22;;;;;;;14.49;64.26;101053.75;4832365;29;20132;-81
2021/06/18 02:18:06;;;;;;;10.63;6.70;;;;;;;14.76;64.21;101081.59;4862257;29;20050;-81
2021/06/18 02:20:33;;;;;;;7.40;5.90;;;;;;;14.87;63.91;101076.28;4846589;29;20407;-81
2021/06/18 02:22:59;;;;;;;9.18;6.22;;;;;;;15.00;64.06;101088.44;4831086;29;20141;-83
2021/06/18 02:25:28;;;;;;;10.07;5.80;;;;;;;15.05;63.93;101086.66;4862517;29;20120;-81
2021/06/18 02:27:55;;;;;;;16.63;7.43;;;;;;;15.20;63.82;101090.03;4849053;29;20041;-82
2021/06/18 02:30:22;;;;;;;15.77;7.15;;;;;;;15.28;63.64;101092.59;4845811;29;20509;-81
2021/06/18 02:32:50;;;;;;;9.70;6.15;;;;;;;15.40;63.63;101091.63;4845024;29;20049;-82
2021/06/18 02:35:16;;;;;;;6.30;5.50;;;;;;;15.54;63.56;101100.25;4861046;29;20467;-80
2021/06/18 02:37:42;;;;;;;8.00;5.55;;;;;;;15.66;63.23;101112.41;4860904;29;20053;-80
2021/06/18 02:40:09;;;;;;;7.20;5.28;;;;;;;15.76;63.36;101111.41;4845644;29;20038;-81
2021/06/18 02:42:35;;;;;;;10.40;5.38;;;;;;;15.88;63.37;101105.22;4864443;29;20140;-82
2021/06/18 02:45:02;;;;;;;6.28;4.88;;;;;;;15.85;62.99;101083.34;4862480;29;20110;-82
2021/06/18 02:47:45;;;;;;;;;;;;;;;;;;;;;
2021/06/18 02:50:59;;;;;;;8.50;5.38;;;;;;;16.26;62.75;101109.16;4845703;29;20528;-81
2021/06/18 02:53:42;;;;;;;8.15;4.95;;;;;;;16.37;62.16;101109.03;4805432;29;20135;-81
2021/06/18 02:56:21;;;;;;;9.10;5.00;;;;;;;16.49;62.10;101104.53;4844129;29;20087;-80
2021/06/18 02:58:52;;;;;;;9.77;4.80;;;;;;;16.69;61.65;101120.03;4864868;29;20065;-80
2021/06/18 03:01:25;;;;;;;11.45;4.90;;;;;;;16.87;61.32;101121.53;4861533;29;20544;-81
2021/06/18 03:03:55;;;;;;;7.03;5.03;;;;;;;17.04;60.91;101129.22;4845850;29;20041;-80
2021/06/18 03:06:24;;;;;;;13.57;4.88;;;;;;;17.15;60.50;101123.81;4845003;29;20053;-81
2021/06/18 03:08:59;;;;;;;10.63;5.20;;;;;;;17.15;60.32;101094.88;4845768;29;20045;-80
2021/06/18 03:11:29;;;;;;;7.70;4.75;;;;;;;17.41;60.10;101107.59;4861637;29;20054;-81
2021/06/18 03:13:57;;;;;;;10.02;4.80;;;;;;;17.48;60.01;101116.25;4845002;29;20061;-82
2021/06/18 03:16:29;;;;;;;9.10;4.85;;;;;;;17.65;59.76;101113.34;4860538;29;20049;-81
2021/06/18 03:18:59;;;;;;;7.35;4.93;;;;;;;17.80;59.28;101098.16;4845184;29;20501;-82
2021/06/18 03:21:29;;;;;;;8.70;4.53;;;;;;;18.08;59.17;101114.38;4844269;29;20037;-81
2021/06/18 03:23:57;;;;;;;5.93;3.72;;;;;;;18.21;58.84;101113.22;4845069;29;20045;-84
2021/06/18 03:26:24;;;;;;;5.40;3.30;;;;;;;18.29;58.00;101106.94;4831595;29;20048;-82
2021/06/18 03:28:50;;;;;;;5.60;3.58;;;;;;;18.53;57.63;101116.09;4862359;29;20053;-81
2021/06/18 03:31:18;;;;;;;4.78;3.10;;;;;;;18.70;56.86;101106.94;4862510;29;20090;-81
2021/06/18 03:33:46;;;;;;;6.28;2.80;;;;;;;18.78;56.06;101070.72;4861705;29;20041;-82
2021/06/18 03:36:16;;;;;;;4.32;2.65;;;;;;;18.85;55.50;101051.25;4871282;29;20041;-78
2021/06/18 03:38:43;;;;;;;6.15;3.20;;;;;;;19.23;54.52;101089.03;4875340;29;20074;-79
2021/06/18 03:41:14;;;;;;;5.00;2.92;;;;;;;19.27;54.03;101077.50;4851503;29;20545;-80
2021/06/18 03:43:41;;;;;;;3.63;2.58;;;;;;;19.45;53.72;101071.78;4845850;29;20045;-79
2021/06/18 03:46:08;;;;;;;5.57;2.80;;;;;;;19.78;53.33;101083.22;4861072;29;20532;-81
2021/06/18 03:48:37;;;;;;;6.63;3.30;;;;;;;19.94;53.15;101082.88;4861165;29;20057;-81
2021/06/18 03:51:09;;;;;;;3.03;2.35;;;;;;;20.10;52.68;101078.88;4862306;29;20128;-80
2021/06/18 03:53:35;;;;;;;4.55;2.70;;;;;;;20.26;52.16;101081.94;4862121;29;20049;-78
2021/06/18 03:56:03;;;;;;;7.95;3.08;;;;;;;20.52;51.78;101106.75;4845006;29;20046;-79
2021/06/18 03:58:31;;;;;;;3.35;2.45;;;;;;;20.73;51.53;101101.72;4861162;29;20042;-81
2021/06/18 04:00:59;;;;;;;4.45;2.40;;;;;;;20.91;51.44;101108.25;4846443;29;20501;-80
2021/06/18 04:03:27;;;;;;;4.10;2.53;;;;;;;21.09;50.87;101101.50;4846417;29;20068;-80
2021/06/18 04:05:59;;;;;;;4.40;2.47;;;;;;;21.27;50.31;101107.09;4860288;29;20129;-81
2021/06/18 04:08:26;;;;;;;5.85;2.60;;;;;;;21.27;49.72;101086.81;4860472;29;20045;-79
2021/06/18 04:10:53;;;;;;;3.80;2.42;;;;;;;21.42;49.40;101087.22;4860998;29;20094;-78
2021/06/18 04:13:19;;;;;;;6.20;2.70;;;;;;;21.54;48.50;101101.81;4859703;29;20069;-79
2021/06/18 04:15:47;;;;;;;4.43;2.10;;;;;;;21.64;48.38;101104.13;4860730;29;20074;-79
2021/06/18 04:18:23;;;;;;;5.55;2.50;;;;;;;21.86;48.24;101115.72;4830270;29;20156;-81
2021/06/18 04:20:51;;;;;;;3.80;2.03;;;;;;;22.02;47.79;101113.41;4845373;29;20063;-79
2021/06/18 04:23:27;;;;;;;6.32;2.33;;;;;;;22.06;46.98;101107.09;4861112;29;20045;-81
2021/06/18 04:25:59;;;;;;;4.10;2.37;;;;;;;22.22;46.83;101094.13;4844375;29;20037;-79
2021/06/18 04:28:26;;;;;;;4.78;2.70;;;;;;;22.38;46.50;101097.09;4844905;29;20044;-80
2021/06/18 04:30:52;;;;;;;3.08;2.15;;;;;;;22.63;46.50;101117.38;4860966;29;20577;-81
2021/06/18 04:33:18;;;;;;;3.28;2.28;;;;;;;22.89;46.28;101126.09;4859900;29;20042;-82
2021/06/18 04:35:44;;;;;;;2.10;1.90;;;;;;;23.01;45.71;101115.00;4859971;29;20044;-80
2021/06/18 04:38:10;;;;;;;2.90;1.77;;;;;;;22.97;44.68;101093.03;4860429;29;20049;-80
2021/06/18 04:40:37;;;;;;;2.05;1.80;;;;;;;23.24;44.18;101127.38;4860830;29;20136;-82
2021/06/18 04:43:04;;;;;;;2.70;1.77;;;;;;;23.19;43.73;101100.09;4863810;29;20506;-80
2021/06/18 04:45:30;;;;;;;1.70;1.50;;;;;;;23.34;42.96;101111.91;4863785;29;20073;-79
2021/06/18 04:47:58;;;;;;;4.18;1.80;;;;;;;23.57;41.70;101126.91;4865400;29;20049;-80
2021/06/18 04:50:24;;;;;;;2.70;1.77;;;;;;;23.57;40.79;101107.44;4865457;29;20065;-79
2021/06/18 04:52:51;;;;;;;3.05;1.65;;;;;;;23.77;40.73;101131.34;4863824;29;20045;-79
2021/06/18 04:55:18;;;;;;;3.95;1.95;;;;;;;23.79;40.21;101120.66;4847282;29;20064;-80
2021/06/18 04:57:48;;;;;;;2.50;1.63;;;;;;;23.84;40.50;101107.16;4866388;29;20045;-79
2021/06/18 05:00:16;;;;;;;2.85;1.50;;;;;;;23.95;39.70;101104.88;4878372;29;20053;-80
2021/06/18 05:02:43;;;;;;;3.15;1.42;;;;;;;24.12;39.53;101119.28;4880010;29;20052;-81
2021/06/18 05:05:11;;;;;;;4.30;1.60;;;;;;;24.12;39.17;101114.81;4854410;29;20193;-81
2021/06/18 05:07:37;;;;;;;4.03;1.50;;;;;;;24.30;38.74;101126.41;4874073;29;20060;-81
2021/06/18 05:10:07;;;;;;;1.65;1.40;;;;;;;24.11;38.71;101075.84;4863847;29;20051;-80
2021/06/18 05:12:38;;;;;;;2.40;1.48;;;;;;;24.58;38.42;101121.59;4845741;29;20073;-81
2021/06/18 05:15:21;;;;;;;1.80;1.33;;;;;;;24.27;38.12;101053.91;4820233;29;20088;-81
2021/06/18 05:17:48;;;;;;;3.83;1.70;;;;;;;24.46;37.82;101064.53;4846695;29;20173;-81
2021/06/18 05:20:15;;;;;;;2.67;1.70;;;;;;;25.05;37.35;101120.28;4831355;29;20049;-82
2021/06/18 05:22:41;;;;;;;3.38;1.50;;;;;;;25.06;36.90;101111.34;4862278;29;20125;-80
2021/06/18 05:25:08;;;;;;;1.73;1.40;;;;;;;25.12;36.47;101105.75;4844549;29;20257;-82
2021/06/18 05:27:34;;;;;;;3.97;1.50;;;;;;;25.32;35.70;101117.19;4860035;29;20512;-82
2021/06/18 05:30:00;;;;;;;1.77;1.40;;;;;;;25.35;35.48;101115.25;4859281;29;20196;-81
2021/06/18 05:32:26;;;;;;;1.42;1.33;;;;;;;25.53;35.37;101123.28;4858493;29;20221;-81
2021/06/18 05:34:52;;;;;;;2.50;1.70;;;;;;;25.63;35.26;101110.34;4860225;29;20053;-83
2021/06/18 05:37:20;;;;;;;3.15;1.45;;;;;;;25.75;34.87;101114.19;4845280;29;20037;-83
2021/06/18 05:39:59;;;;;;;1.33;1.08;;;;;;;25.77;34.29;101121.16;4845229;29;20122;-81
2021/06/18 05:42:26;;;;;;;1.30;1.17;;;;;;;25.65;34.08;101106.66;4858647;29;20124;-79
2021/06/18 05:44:52;;;;;;;3.10;1.40;;;;;;;25.68;33.42;101109.16;4860090;29;20050;-78
2021/06/18 05:47:18;;;;;;;2.05;1.30;;;;;;;25.89;33.12;101116.97;4863163;29;20052;-79
2021/06/18 05:49:44;;;;;;;1.67;1.45;;;;;;;25.99;33.11;101090.69;4863980;29;20052;-80
2021/06/18 05:52:11;;;;;;;2.65;1.67;;;;;;;26.27;32.13;101052.75;4830293;29;20049;-80
2021/06/18 05:54:42;;;;;;;5.68;1.52;;;;;;;27.65;31.55;101068.91;4864495;29;20068;-81
2021/06/18 05:57:08;;;;;;;2.58;1.83;;;;;;;29.90;29.10;101094.53;4860306;29;20041;-81
2021/06/18 05:59:35;;;;;;;1.65;1.20;;;;;;;32.29;27.06;101086.72;4857375;29;20130;-80
2021/06/18 06:02:01;;;;;;;3.40;1.15;;;;;;;34.51;25.06;101078.72;4846461;29;20038;-81
2021/06/18 06:04:27;;;;;;;2.75;1.50;;;;;;;36.28;23.16;101075.75;4863172;29;20049;-83
2021/06/18 06:06:53;;;;;;;3.20;1.50;;;;;;;37.87;21.27;101068.78;4827198;29;20127;-80
2021/06/18 06:09:19;;;;;;;3.72;1.52;;;;;;;38.98;20.88;101075.88;4843625;29;20053;-81
2021/06/18 06:11:46;;;;;;;2.97;1.27;;;;;;;39.68;19.84;101072.75;4843883;29;20053;-81
2021/06/18 06:14:17;;;;;;;4.05;1.73;;;;;;;40.45;18.26;101069.38;4861165;29;20046;-81
2021/06/18 06:16:45;;;;;;;2.22;1.50;;;;;;;40.77;17.58;101081.09;4852523;29;20510;-79
2021/06/18 06:19:11;;;;;;;2.92;1.55;;;;;;;42.00;16.82;101074.59;4845052;29;20073;-79
2021/06/18 06:21:40;;;;;;;2.72;1.35;;;;;;;43.04;16.20;101062.44;4842375;29;20436;-81
2021/06/18 06:24:08;;;;;;;1.63;1.35;;;;;;;43.90;15.23;101074.16;4853195;29;20089;-81
2021/06/18 06:26:34;;;;;;;2.83;1.40;;;;;;;44.36;14.20;101056.19;4845213;29;20144;-81
2021/06/18 06:29:02;;;;;;;4.15;1.70;;;;;;;44.75;13.96;101066.59;4846406;29;20573;-80
2021/06/18 06:31:30;;;;;;;2.13;1.15;;;;;;;45.25;13.19;101058.78;4844298;29;20041;-79
2021/06/18 06:33:56;;;;;;;1.40;1.30;;;;;;;45.75;12.66;101076.66;4829347;29;20137;-83
2021/06/18 06:36:23;;;;;;;2.70;1.30;;;;;;;46.35;11.83;101075.50;4862092;29;20161;-81
2021/06/18 06:38:50;;;;;;;4.63;1.42;;;;;;;46.52;12.11;101047.47;4864179;29;20081;-81
2021/06/18 06:41:16;;;;;;;2.08;1.30;;;;;;;47.33;11.10;101058.63;4863247;29;20052;-81
2021/06/18 06:43:43;;;;;;;3.17;1.30;;;;;;;47.95;10.39;101065.97;4861626;29;20421;-79
2021/06/18 06:46:09;;;;;;;4.93;1.40;;;;;;;47.99;10.17;101066.38;4861794;29;20049;-81
2021/06/18 06:48:35;;;;;;;3.35;1.40;;;;;;;48.52;9.80;101073.84;4844345;29;20088;-80
2021/06/18 06:51:01;;;;;;;1.60;1.50;;;;;;;48.60;9.99;101075.44;4859694;29;20041;-79
2021/06/18 06:53:26;;;;;;;2.42;1.40;;;;;;;48.54;9.03;101065.34;4845227;29;20047;-79
2021/06/18 06:55:53;;;;;;;2.40;1.50;;;;;;;49.08;9.70;101067.22;4846132;29;20057;-80
2021/06/18 06:58:19;;;;;;;3.45;1.50;;;;;;;49.40;9.22;101055.78;4863173;29;20102;-81
2021/06/18 07:00:45;;;;;;;2.97;1.48;;;;;;;49.50;8.83;101061.53;4853803;29;20062;-81
2021/06/18 07:03:11;;;;;;;3.50;1.60;;;;;;;49.77;8.70;101069.28;4870296;29;20053;-83
2021/06/18 07:05:37;;;;;;;1.95;1.40;;;;;;;50.27;8.55;101058.63;4848702;29;20109;-80
2021/06/18 07:08:20;;;;;;;3.03;1.77;;;;;;;50.39;8.40;101066.88;4849935;29;20081;-81
2021/06/18 07:10:47;;;;;;;2.20;1.58;;;;;;;50.43;8.54;101068.03;4865388;29;20060;-81
2021/06/18 07:13:13;;;;;;;3.17;1.58;;;;;;;50.77;8.02;101081.91;4846361;29;20482;-82
2021/06/18 07:15:39;;;;;;;2.35;2.00;;;;;;;49.76;8.65;101075.88;4846321;29;20057;-84
2021/06/18 07:18:05;;;;;;;2.25;1.58;;;;;;;49.39;8.75;101065.16;4864356;29;20050;-82
2021/06/18 07:20:32;;;;;;;2.75;1.67;;;;;;;49.46;8.69;101057.59;4865397;29;20214;-81
2021/06/18 07:22:58;;;;;;;2.88;1.60;;;;;;;50.09;8.55;101062.44;4865810;29;20069;-80
2021/06/18 07:25:24;;;;;;;2.40;1.73;;;;;;;50.48;8.04;101046.81;4848188;29;20232;-82
2021/06/18 07:27:50;;;;;;;1.75;1.60;;;;;;;50.84;8.07;101074.25;4863310;29;20106;-81
2021/06/18 07:30:17;;;;;;;1.88;1.42;;;;;;;51.46;7.76;101068.75;4862073;29;20128;-81
2021/06/18 07:32:43;;;;;;;2.30;1.60;;;;;;;52.18;7.46;101071.56;4845964;29;20159;-82
2021/06/18 07:35:09;;;;;;;1.63;1.33;;;;;;;52.53;7.37;101051.59;4861632;29;20518;-82
2021/06/18 07:37:36;;;;;;;4.13;3.15;;;;;;;52.24;7.26;101073.25;4861078;29;20045;-82
2021/06/18 07:40:03;;;;;;;2.83;1.70;;;;;;;51.70;7.53;101058.28;4862779;29;20070;-80
2021/06/18 07:42:29;;;;;;;6.45;1.58;;;;;;;51.76;7.90;101057.22;4846194;29;20090;-80
2021/06/18 07:44:55;;;;;;;2.58;1.48;;;;;;;50.03;8.08;101062.31;4861051;29;20049;-81
2021/06/18 07:47:23;;;;;;;1.98;1.60;;;;;;;49.87;8.22;101060.38;4862155;29;20132;-81
2021/06/18 07:49:49;;;;;;;4.45;1.40;;;;;;;50.48;7.84;101038.53;4849558;29;20045;-80
2021/06/18 07:52:15;;;;;;;1.67;1.58;;;;;;;51.67;7.35;101048.53;4846320;29;20536;-84
2021/06/18 07:54:42;;;;;;;3.15;1.80;;;;;;;52.27;7.43;101039.47;4862462;29;20046;-82
2021/06/18 07:57:09;;;;;;;1.80;1.70;;;;;;;52.68;6.47;101056.47;4861168;29;20136;-79
2021/06/18 07:59:35;;;;;;;1.75;1.58;;;;;;;53.04;6.28;101046.72;4844064;29;20045;-79
2021/06/18 08:02:01;;;;;;;3.03;1.90;;;;;;;53.19;6.41;101060.66;4844518;29;20049;-79
2021/06/18 08:04:27;;;;;;;2.83;1.67;;;;;;;53.48;6.69;101056.63;4845349;29;20451;-77
2021/06/18 08:06:53;;;;;;;4.15;2.20;;;;;;;53.11;6.84;101061.16;4844551;29;20108;-81
2021/06/18 08:09:18;;;;;;;3.55;1.60;;;;;;;52.52;6.46;101041.63;4841083;29;20053;-81
2021/06/18 08:11:44;;;;;;;3.42;1.40;;;;;;;51.72;6.60;101045.00;4829455;29;20018;-79
2021/06/18 08:14:10;;;;;;;1.77;1.40;;;;;;;50.63;7.18;101032.44;4862404;29;20062;-79
2021/06/18 08:16:36;;;;;;;2.72;1.35;;;;;;;51.20;6.99;101033.28;4839470;29;20057;-80
2021/06/18 08:19:02;;;;;;;2.72;1.48;;;;;;;51.03;7.06;101026.94;4862218;29;20502;-78
2021/06/18 08:21:28;;;;;;;1.73;1.45;;;;;;;51.43;6.77;101031.34;4860957;29;20056;-77
2021/06/18 08:23:54;;;;;;;6.30;1.60;;;;;;;51.02;6.97;101030.78;4843446;29;20097;-82
2021/06/18 08:26:20;;;;;;;1.88;1.38;;;;;;;51.36;6.49;101030.69;4861037;29;20051;-78
2021/06/18 08:28:46;;;;;;;1.42;1.33;;;;;;;51.39;7.18;101024.63;4844348;29;20081;-78
2021/06/18 08:31:12;;;;;;;2.13;1.70;;;;;;;51.48;6.92;101033.31;4846375;29;20038;-79
2021/06/18 08:33:38;;;;;;;1.50;1.40;;;;;;;50.84;6.91;101027.19;4843037;29;20042;-80
2021/06/18 08:36:05;;;;;;;4.70;1.52;;;;;;;51.20;6.64;101038.81;4858628;29;20120;-78
2021/06/18 08:38:36;;;;;;;3.90;1.30;;;;;;;51.67;6.96;101028.31;4842572;29;20110;-79
2021/06/18 08:41:05;;;;;;;1.42;1.33;;;;;;;51.31;6.93;101009.31;4860117;29;20096;-79
2021/06/18 08:43:32;;;;;;;2.47;1.48;;;;;;;51.68;6.31;101027.22;4859097;29;20063;-78
2021/06/18 08:46:01;;;;;;;1.48;1.30;;;;;;;51.74;6.80;101031.72;4829144;29;20056;-79
2021/06/18 08:48:31;;;;;;;1.30;1.20;;;;;;;51.33;6.68;101025.66;4859634;29;20037;-78
2021/06/18 08:51:01;;;;;;;1.50;1.40;;;;;;;51.56;7.12;101018.19;4843353;29;20085;-78
2021/06/18 08:53:27;;;;;;;;;;;;;;;52.38;6.38;101021.81;4860054;29;20105;-78
2021/06/18 08:55:54;;;;;;;1.55;1.45;;;;;;;52.04;6.80;101022.03;4857496;29;19939;-79
2021/06/18 08:58:21;;;;;;;2.65;1.40;;;;;;;52.62;6.60;101017.81;4859414;29;20069;-78
2021/06/18 09:00:47;;;;;;;5.43;1.58;;;;;;;53.69;6.05;101021.41;4857908;29;20041;-80
2021/06/18 09:03:37;;;;;;;2.75;1.58;;;;;;;53.67;6.20;101016.13;4841814;29;20435;-79
2021/06/18 09:06:26;;;;;;;2.17;1.50;;;;;;;52.62;6.25;101021.47;4833134;29;20197;-79
2021/06/18 09:09:11;;;;;;;;;;;;;;;52.21;6.80;101016.38;4842913;29;20084;-79
2021/06/18 09:11:50;;;;;;;1.98;1.75;;;;;;;52.44;6.46;101007.94;4855652;29;20392;-79
2021/06/18 09:14:31;;;;;;;3.20;1.40;;;;;;;52.17;6.33;101006.06;4827309;29;20478;-78
2021/06/18 09:17:27;;;;;;;3.33;1.65;;;;;;;53.06;6.46;101008.38;4860752;29;20041;-79
2021/06/18 09:20:23;;;;;;;3.10;1.50;;;;;;;53.74;5.79;100994.44;4859953;29;20042;-79
2021/06/18 09:22:48;;;;;;;2.22;1.75;;;;;;;53.96;5.79;100996.16;4859054;29;20060;-81
2021/06/18 09:25:18;;;;;;;4.13;1.75;;;;;;;53.65;6.03;101000.84;4858781;29;20160;-83
2021/06/18 09:27:48;;;;;;;4.93;2.10;;;;;;;53.45;6.31;100986.56;4842596;29;20517;-80
2021/06/18 09:30:32;;;;;;;2.55;1.65;;;;;;;52.90;6.70;101008.25;4827500;29;20045;-81
2021/06/18 09:33:05;;;;;;;1.75;1.65;;;;;;;52.56;6.62;101000.28;4828719;29;20041;-82
2021/06/18 09:35:33;;;;;;;2.05;1.60;;;;;;;53.05;5.92;100988.09;4858219;29;20049;-81
2021/06/18 09:38:02;;;;;;;1.88;1.70;;;;;;;53.26;6.31;100999.28;4861848;29;20037;-81
2021/06/18 09:40:29;;;;;;;3.42;1.98;;;;;;;53.64;6.16;100999.97;4845433;29;20531;-83
2021/06/18 09:43:14;;;;;;;2.30;2.10;;;;;;;53.41;6.48;100977.09;4845648;29;20056;-83
2021/06/18 09:45:41;;;;;;;2.50;2.30;;;;;;;53.60;6.42;100993.28;4863161;29;20045;-81
2021/06/18 09:48:14;;;;;;;3.53;2.05;;;;;;;53.24;6.52;100944.00;4846185;29;20109;-82
2021/06/18 09:50:44;;;;;;;2.40;2.20;;;;;;;53.50;5.75;100976.59;4833931;29;20731;-81
2021/06/18 09:53:17;;;;;;;4.22;1.90;;;;;;;52.68;6.11;100977.91;4863048;29;20049;-80
2021/06/18 09:55:46;;;;;;;3.42;1.85;;;;;;;52.15;6.16;100963.88;4861237;29;20086;-80
2021/06/18 09:58:31;;;;;;;2.50;1.80;;;;;;;49.84;7.17;100978.78;4862032;29;20105;-81
2021/06/18 10:01:32;;;;;;;2.63;1.67;;;;;;;49.03;7.55;100954.72;4847997;29;20160;-84
2021/06/18 10:04:02;;;;;;;2.40;1.75;;;;;;;48.17;7.82;100972.56;4846613;29;20094;-80
2021/06/18 10:06:36;;;;;;;2.28;1.80;;;;;;;48.85;8.09;100966.75;4832844;29;20113;-79
2021/06/18 10:09:07;;;;;;;5.28;1.63;;;;;;;49.39;7.95;100954.66;4864914;29;20127;-81
2021/06/18 10:11:34;;;;;;;3.08;1.63;;;;;;;50.38;7.53;100971.13;4867091;29;20053;-81
2021/06/18 10:14:01;;;;;;;3.17;1.40;;;;;;;50.91;7.47;100946.72;4850078;29;20083;-81
2021/06/18 10:16:28;;;;;;;3.50;1.70;;;;;;;51.22;7.11;100959.06;4851812;29;20041;-79
2021/06/18 10:18:58;;;;;;;2.58;1.50;;;;;;;51.11;7.12;100959.16;4868286;29;20045;-80
2021/06/18 10:21:26;;;;;;;2.22;1.33;;;;;;;50.79;7.30;100960.66;4836447;29;20041;-79
2021/06/18 10:24:01;;;;;;;2.97;1.40;;;;;;;50.52;7.76;100955.84;4868181;29;20117;-79
2021/06/18 10:26:28;;;;;;;1.80;1.30;;;;;;;48.92;7.67;100950.91;4867156;29;20081;-78
2021/06/18 10:29:00;;;;;;;2.95;1.63;;;;;;;45.53;9.30;100956.03;4871122;29;20092;-80
2021/06/18 10:31:32;;;;;;;3.97;1.70;;;;;;;42.58;11.07;100948.00;4865637;29;20037;-79
2021/06/18 10:34:13;;;;;;;11.63;1.60;;;;;;;40.59;11.83;100958.69;4881804;29;20037;-80
2021/06/18 10:36:39;;;;;;;2.95;1.48;;;;;;;39.06;12.87;100941.78;4876778;29;20069;-80
2021/06/18 10:39:12;;;;;;;4.70;1.75;;;;;;;37.60;14.24;100927.69;4867846;29;20125;-81
2021/06/18 10:41:53;;;;;;;3.00;1.42;;;;;;;36.85;14.80;100950.81;4873364;29;20054;-82
2021/06/18 10:44:38;;;;;;;4.18;1.50;;;;;;;36.21;15.37;100952.75;4864019;29;20045;-81
2021/06/18 10:47:06;;;;;;;3.47;1.52;;;;;;;35.46;15.66;100948.34;4862129;29;20052;-81
2021/06/18 10:49:39;;;;;;;2.90;1.40;;;;;;;34.90;16.18;100948.19;4847273;29;20170;-80
2021/06/18 10:52:16;;;;;;;3.47;1.77;;;;;;;33.73;17.39;100968.63;4864123;29;20046;-83
2021/06/18 10:54:46;;;;;;;5.20;1.70;;;;;;;33.01;18.24;100972.09;4847980;29;20468;-77
2021/06/18 10:57:14;;;;;;;4.63;1.58;;;;;;;32.20;19.03;100975.22;4861813;29;20414;-78
2021/06/18 11:00:02;;;;;;;4.55;1.52;;;;;;;31.96;19.65;100957.41;4863153;29;20045;-79
2021/06/18 11:02:31;;;;;;;2.75;1.50;;;;;;;32.14;19.41;100962.25;4831290;29;20052;-81
2021/06/18 11:05:00;;;;;;;2.75;1.60;;;;;;;32.12;19.73;100942.69;4862667;29;20045;-82
2021/06/18 11:07:32;;;;;;;2.97;1.60;;;;;;;32.25;19.97;100953.31;4863435;29;20041;-83
2021/06/18 11:10:06;;;;;;;3.50;1.38;;;;;;;31.95;20.44;100954.84;4828531;29;20049;-80
2021/06/18 11:12:37;;;;;;;4.88;1.98;;;;;;;31.44;20.63;100946.31;4815421;29;20403;-80
2021/06/18 11:15:07;;;;;;;4.22;1.48;;;;;;;30.74;21.08;100916.72;4842487;29;20070;-80
2021/06/18 11:17:44;;;;;;;2.28;1.60;;;;;;;30.24;21.47;100907.94;4836363;29;20052;-79
2021/06/18 11:20:16;;;;;;;3.13;1.83;;;;;;;30.26;21.51;100957.88;4849919;29;20052;-79
2021/06/18 11:22:49;;;;;;;4.68;2.42;;;;;;;30.07;21.91;100952.16;4865246;29;20041;-80
2021/06/18 11:25:41;;;;;;;4.30;1.73;;;;;;;29.95;22.30;100952.03;4863117;29;20394;-79
2021/06/18 11:28:23;;;;;;;2.85;1.50;;;;;;;29.92;22.34;100938.84;4841135;29;20139;-80
2021/06/18 11:31:08;;;;;;;3.17;1.40;;;;;;;29.56;22.42;100935.19;4830246;29;20140;-81
2021/06/18 11:33:40;;;;;;;3.28;1.50;;;;;;;29.36;23.16;100947.31;4845090;29;20053;-83
2021/06/18 11:36:24;;;;;;;4.78;1.50;;;;;;;29.18;23.50;100938.72;4841205;29;20072;-79
2021/06/18 11:38:58;;;;;;;2.83;1.40;;;;;;;29.01;23.88;100938.09;4829062;29;20094;-80
2021/06/18 11:41:26;;;;;;;2.83;1.55;;;;;;;28.99;23.99;100932.81;4860513;29;20130;-84